sensor_id;sensor_type;location;lat;lon;timestamp;temperature;humidity
23271;DHT22;11804;51.118;17.058;2023-05-07T00:00:59;8.80;99.90
23271;DHT22;11804;51.118;17.058;2023-05-07T00:03:27;8.80;99.90
23271;DHT22;11804;51.118;17.058;2023-05-07T00:05:55;8.80;99.90
23271;DHT22;11804;51.118;17.058;2023-05-07T00:08:22;8.80;99.90
23271;DHT22;11804;51.118;17.058;2023-05-07T00:10:50;9.00;99.90
23271;DHT22;11804;51.118;17.058;2023-05-07T00:13:18;8.80;99.90
23271;DHT22;11804;51.118;17.058;2023-05-07T00:15:47;8.90;99.90
23271;DHT22;11804;51.118;17.058;2023-05-07T00:18:14;8.80;99.90
23271;DHT22;11804;51.118;17.058;2023-05-07T00:20:42;8.90;99.90
23271;DHT22;11804;51.118;17.058;2023-05-07T00:23:10;9.00;99.90
23271;DHT22;11804;51.118;17.058;2023-05-07T00:25:37;9.00;99.90
23271;DHT22;11804;51.118;17.058;2023-05-07T00:28:05;9.10;99.90
23271;DHT22;11804;51.118;17.058;2023-05-07T00:30:32;9.10;99.90
23271;DHT22;11804;51.118;17.058;2023-05-07T00:33:00;9.10;99.90
23271;DHT22;11804;51.118;17.058;2023-05-07T00:35:29;9.00;99.90
23271;DHT22;11804;51.118;17.058;2023-05-07T00:37:57;9.00;99.90
23271;DHT22;11804;51.118;17.058;2023-05-07T00:40:24;9.10;99.90
23271;DHT22;11804;51.118;17.058;2023-05-07T00:42:52;9.10;99.90
23271;DHT22;11804;51.118;17.058;2023-05-07T00:45:21;9.10;99.90
23271;DHT22;11804;51.118;17.058;2023-05-07T00:47:50;9.10;99.90
23271;DHT22;11804;51.118;17.058;2023-05-07T00:50:18;9.20;99.90
23271;DHT22;11804;51.118;17.058;2023-05-07T00:52:46;9.20;99.90
23271;DHT22;11804;51.118;17.058;2023-05-07T00:55:14;9.10;99.90
23271;DHT22;11804;51.118;17.058;2023-05-07T00:57:42;9.10;99.90
23271;DHT22;11804;51.118;17.058;2023-05-07T01:00:12;9.00;99.90
23271;DHT22;11804;51.118;17.058;2023-05-07T01:02:40;9.00;99.90
23271;DHT22;11804;51.118;17.058;2023-05-07T01:05:15;9.10;99.90
23271;DHT22;11804;51.118;17.058;2023-05-07T01:07:40;9.00;99.90
23271;DHT22;11804;51.118;17.058;2023-05-07T01:10:10;9.00;99.90
23271;DHT22;11804;51.118;17.058;2023-05-07T01:12:40;9.10;99.90
23271;DHT22;11804;51.118;17.058;2023-05-07T01:15:09;9.10;99.90
23271;DHT22;11804;51.118;17.058;2023-05-07T01:17:39;9.10;99.90
23271;DHT22;11804;51.118;17.058;2023-05-07T01:20:08;9.00;99.90
23271;DHT22;11804;51.118;17.058;2023-05-07T01:22:40;9.00;99.90
23271;DHT22;11804;51.118;17.058;2023-05-07T01:25:09;9.00;99.90
23271;DHT22;11804;51.118;17.058;2023-05-07T01:27:36;9.00;99.90
23271;DHT22;11804;51.118;17.058;2023-05-07T01:30:08;8.90;99.90
23271;DHT22;11804;51.118;17.058;2023-05-07T01:32:39;8.80;99.90
23271;DHT22;11804;51.118;17.058;2023-05-07T01:35:15;8.70;99.90
23271;DHT22;11804;51.118;17.058;2023-05-07T01:37:39;8.70;99.90
23271;DHT22;11804;51.118;17.058;2023-05-07T01:40:08;8.70;99.90
23271;DHT22;11804;51.118;17.058;2023-05-07T01:42:36;8.80;99.90
23271;DHT22;11804;51.118;17.058;2023-05-07T01:45:04;8.80;99.90
23271;DHT22;11804;51.118;17.058;2023-05-07T01:47:33;8.80;99.90
23271;DHT22;11804;51.118;17.058;2023-05-07T01:50:01;8.90;99.90
23271;DHT22;11804;51.118;17.058;2023-05-07T01:52:29;8.90;99.90
23271;DHT22;11804;51.118;17.058;2023-05-07T01:54:57;8.90;99.90
23271;DHT22;11804;51.118;17.058;2023-05-07T01:57:24;8.90;99.90
23271;DHT22;11804;51.118;17.058;2023-05-07T01:59:52;8.90;99.90
23271;DHT22;11804;51.118;17.058;2023-05-07T02:02:19;8.80;99.90
23271;DHT22;11804;51.118;17.058;2023-05-07T02:04:47;8.90;99.90
23271;DHT22;11804;51.118;17.058;2023-05-07T02:07:16;8.80;99.90
23271;DHT22;11804;51.118;17.058;2023-05-07T02:09:43;8.80;99.90
23271;DHT22;11804;51.118;17.058;2023-05-07T02:12:12;8.80;99.90
23271;DHT22;11804;51.118;17.058;2023-05-07T02:14:39;8.70;99.90
23271;DHT22;11804;51.118;17.058;2023-05-07T02:17:08;8.70;99.90
23271;DHT22;11804;51.118;17.058;2023-05-07T02:19:35;8.70;99.90
23271;DHT22;11804;51.118;17.058;2023-05-07T02:22:03;8.70;99.90
23271;DHT22;11804;51.118;17.058;2023-05-07T02:24:31;8.70;99.90
23271;DHT22;11804;51.118;17.058;2023-05-07T02:26:58;8.70;99.90
23271;DHT22;11804;51.118;17.058;2023-05-07T02:29:26;8.70;99.90
23271;DHT22;11804;51.118;17.058;2023-05-07T02:31:54;8.70;99.90
23271;DHT22;11804;51.118;17.058;2023-05-07T02:34:22;8.60;99.90
23271;DHT22;11804;51.118;17.058;2023-05-07T02:36:49;8.70;99.90
23271;DHT22;11804;51.118;17.058;2023-05-07T02:39:17;8.50;99.90
23271;DHT22;11804;51.118;17.058;2023-05-07T02:41:44;8.50;99.90
23271;DHT22;11804;51.118;17.058;2023-05-07T02:44:12;8.40;99.90
23271;DHT22;11804;51.118;17.058;2023-05-07T02:46:39;8.50;99.90
23271;DHT22;11804;51.118;17.058;2023-05-07T02:49:07;8.60;99.90
23271;DHT22;11804;51.118;17.058;2023-05-07T02:51:35;8.60;99.90
23271;DHT22;11804;51.118;17.058;2023-05-07T02:54:02;8.60;99.90
23271;DHT22;11804;51.118;17.058;2023-05-07T02:56:30;8.70;99.90
23271;DHT22;11804;51.118;17.058;2023-05-07T02:58:57;8.40;99.90
23271;DHT22;11804;51.118;17.058;2023-05-07T03:01:25;8.30;99.90
23271;DHT22;11804;51.118;17.058;2023-05-07T03:03:53;8.40;99.90
23271;DHT22;11804;51.118;17.058;2023-05-07T03:06:22;8.40;99.90
23271;DHT22;11804;51.118;17.058;2023-05-07T03:08:49;8.50;99.90
23271;DHT22;11804;51.118;17.058;2023-05-07T03:11:17;8.40;99.90
23271;DHT22;11804;51.118;17.058;2023-05-07T03:13:44;8.40;99.90
23271;DHT22;11804;51.118;17.058;2023-05-07T03:16:12;8.40;99.90
23271;DHT22;11804;51.118;17.058;2023-05-07T03:18:40;8.40;99.90
23271;DHT22;11804;51.118;17.058;2023-05-07T03:21:07;8.50;99.90
23271;DHT22;11804;51.118;17.058;2023-05-07T03:23:35;8.40;99.90
23271;DHT22;11804;51.118;17.058;2023-05-07T03:26:03;8.40;99.90
23271;DHT22;11804;51.118;17.058;2023-05-07T03:28:30;8.30;99.90
23271;DHT22;11804;51.118;17.058;2023-05-07T03:30:58;8.30;99.90
23271;DHT22;11804;51.118;17.058;2023-05-07T03:33:25;8.40;99.90
23271;DHT22;11804;51.118;17.058;2023-05-07T03:35:54;8.40;99.90
23271;DHT22;11804;51.118;17.058;2023-05-07T03:38:21;8.40;99.90
23271;DHT22;11804;51.118;17.058;2023-05-07T03:40:49;8.40;99.90
23271;DHT22;11804;51.118;17.058;2023-05-07T03:43:16;8.40;99.90
23271;DHT22;11804;51.118;17.058;2023-05-07T03:45:44;8.40;99.90
23271;DHT22;11804;51.118;17.058;2023-05-07T03:48:12;8.50;99.90
23271;DHT22;11804;51.118;17.058;2023-05-07T03:50:39;8.50;99.90
23271;DHT22;11804;51.118;17.058;2023-05-07T03:53:07;8.50;99.90
23271;DHT22;11804;51.118;17.058;2023-05-07T03:55:35;8.50;99.90
23271;DHT22;11804;51.118;17.058;2023-05-07T03:58:02;8.50;99.90
23271;DHT22;11804;51.118;17.058;2023-05-07T04:00:30;8.50;99.90
23271;DHT22;11804;51.118;17.058;2023-05-07T04:02:59;8.50;99.90
23271;DHT22;11804;51.118;17.058;2023-05-07T04:05:27;8.50;99.90
23271;DHT22;11804;51.118;17.058;2023-05-07T04:07:54;8.60;99.90
23271;DHT22;11804;51.118;17.058;2023-05-07T04:10:22;8.50;99.90
23271;DHT22;11804;51.118;17.058;2023-05-07T04:12:50;8.50;99.90
23271;DHT22;11804;51.118;17.058;2023-05-07T04:15:17;8.40;99.90
23271;DHT22;11804;51.118;17.058;2023-05-07T04:17:47;8.50;99.90
23271;DHT22;11804;51.118;17.058;2023-05-07T04:20:15;8.50;99.90
23271;DHT22;11804;51.118;17.058;2023-05-07T04:22:44;8.40;99.90
23271;DHT22;11804;51.118;17.058;2023-05-07T04:25:12;8.40;99.90
23271;DHT22;11804;51.118;17.058;2023-05-07T04:27:41;8.50;99.90
23271;DHT22;11804;51.118;17.058;2023-05-07T04:30:09;8.50;99.90
23271;DHT22;11804;51.118;17.058;2023-05-07T04:32:38;8.60;99.90
23271;DHT22;11804;51.118;17.058;2023-05-07T04:35:06;8.70;99.90
23271;DHT22;11804;51.118;17.058;2023-05-07T04:37:34;8.70;99.90
23271;DHT22;11804;51.118;17.058;2023-05-07T04:40:01;8.70;99.90
23271;DHT22;11804;51.118;17.058;2023-05-07T04:42:29;8.70;99.90
23271;DHT22;11804;51.118;17.058;2023-05-07T04:44:57;8.70;99.90
23271;DHT22;11804;51.118;17.058;2023-05-07T04:47:25;8.80;99.90
23271;DHT22;11804;51.118;17.058;2023-05-07T04:49:53;8.90;99.90
23271;DHT22;11804;51.118;17.058;2023-05-07T04:52:20;9.00;99.90
23271;DHT22;11804;51.118;17.058;2023-05-07T04:54:48;9.10;99.90
23271;DHT22;11804;51.118;17.058;2023-05-07T04:57:16;9.20;99.90
23271;DHT22;11804;51.118;17.058;2023-05-07T04:59:44;9.20;99.90
23271;DHT22;11804;51.118;17.058;2023-05-07T05:02:12;9.30;99.90
23271;DHT22;11804;51.118;17.058;2023-05-07T05:04:39;9.30;99.90
23271;DHT22;11804;51.118;17.058;2023-05-07T05:07:07;9.10;99.90
23271;DHT22;11804;51.118;17.058;2023-05-07T05:09:35;9.00;99.90
23271;DHT22;11804;51.118;17.058;2023-05-07T05:12:02;9.00;99.90
23271;DHT22;11804;51.118;17.058;2023-05-07T05:14:30;8.90;99.90
23271;DHT22;11804;51.118;17.058;2023-05-07T05:16:58;9.00;99.90
23271;DHT22;11804;51.118;17.058;2023-05-07T05:19:25;8.90;99.90
23271;DHT22;11804;51.118;17.058;2023-05-07T05:21:53;8.80;99.90
23271;DHT22;11804;51.118;17.058;2023-05-07T05:24:21;8.70;99.90
23271;DHT22;11804;51.118;17.058;2023-05-07T05:26:49;8.70;99.90
23271;DHT22;11804;51.118;17.058;2023-05-07T05:29:16;8.80;99.90
23271;DHT22;11804;51.118;17.058;2023-05-07T05:31:44;8.70;99.90
23271;DHT22;11804;51.118;17.058;2023-05-07T05:34:12;8.70;99.90
23271;DHT22;11804;51.118;17.058;2023-05-07T05:36:39;8.60;99.90
23271;DHT22;11804;51.118;17.058;2023-05-07T05:39:07;8.50;99.90
23271;DHT22;11804;51.118;17.058;2023-05-07T05:41:35;8.60;99.90
23271;DHT22;11804;51.118;17.058;2023-05-07T05:44:02;8.70;99.90
23271;DHT22;11804;51.118;17.058;2023-05-07T05:46:30;8.60;99.90
23271;DHT22;11804;51.118;17.058;2023-05-07T05:48:58;8.60;99.90
23271;DHT22;11804;51.118;17.058;2023-05-07T05:51:25;8.70;99.90
23271;DHT22;11804;51.118;17.058;2023-05-07T05:53:53;8.70;99.90
23271;DHT22;11804;51.118;17.058;2023-05-07T05:56:20;8.60;99.90
23271;DHT22;11804;51.118;17.058;2023-05-07T05:58:48;8.60;99.90
23271;DHT22;11804;51.118;17.058;2023-05-07T06:01:17;8.70;99.90
23271;DHT22;11804;51.118;17.058;2023-05-07T06:03:46;8.60;99.90
23271;DHT22;11804;51.118;17.058;2023-05-07T06:06:13;8.70;99.90
23271;DHT22;11804;51.118;17.058;2023-05-07T06:08:41;8.80;99.90
23271;DHT22;11804;51.118;17.058;2023-05-07T06:11:09;8.70;99.90
23271;DHT22;11804;51.118;17.058;2023-05-07T06:13:38;8.80;99.90
23271;DHT22;11804;51.118;17.058;2023-05-07T06:16:06;8.80;99.90
23271;DHT22;11804;51.118;17.058;2023-05-07T06:18:34;8.70;99.90
23271;DHT22;11804;51.118;17.058;2023-05-07T06:21:03;8.90;99.90
23271;DHT22;11804;51.118;17.058;2023-05-07T06:23:31;8.90;99.90
23271;DHT22;11804;51.118;17.058;2023-05-07T06:25:59;9.00;99.90
23271;DHT22;11804;51.118;17.058;2023-05-07T06:28:27;9.00;99.90
23271;DHT22;11804;51.118;17.058;2023-05-07T06:30:54;8.90;99.90
23271;DHT22;11804;51.118;17.058;2023-05-07T06:33:22;8.80;99.90
23271;DHT22;11804;51.118;17.058;2023-05-07T06:35:49;8.90;99.90
23271;DHT22;11804;51.118;17.058;2023-05-07T06:38:17;8.90;99.90
23271;DHT22;11804;51.118;17.058;2023-05-07T06:40:48;8.80;99.90
23271;DHT22;11804;51.118;17.058;2023-05-07T06:43:15;9.00;99.90
23271;DHT22;11804;51.118;17.058;2023-05-07T06:45:43;9.00;99.90
23271;DHT22;11804;51.118;17.058;2023-05-07T06:48:11;8.70;99.90
23271;DHT22;11804;51.118;17.058;2023-05-07T06:50:38;8.70;99.90
23271;DHT22;11804;51.118;17.058;2023-05-07T06:53:06;8.80;99.90
23271;DHT22;11804;51.118;17.058;2023-05-07T06:55:33;8.80;99.90
23271;DHT22;11804;51.118;17.058;2023-05-07T06:58:01;8.80;99.90
23271;DHT22;11804;51.118;17.058;2023-05-07T07:00:28;8.80;99.90
23271;DHT22;11804;51.118;17.058;2023-05-07T07:02:57;8.80;99.90
23271;DHT22;11804;51.118;17.058;2023-05-07T07:05:26;8.70;99.90
23271;DHT22;11804;51.118;17.058;2023-05-07T07:07:53;8.80;99.90
23271;DHT22;11804;51.118;17.058;2023-05-07T07:10:23;8.80;99.90
23271;DHT22;11804;51.118;17.058;2023-05-07T07:12:50;8.70;99.90
23271;DHT22;11804;51.118;17.058;2023-05-07T07:15:20;8.70;99.90
23271;DHT22;11804;51.118;17.058;2023-05-07T07:17:48;8.70;99.90
23271;DHT22;11804;51.118;17.058;2023-05-07T07:20:16;8.90;99.90
23271;DHT22;11804;51.118;17.058;2023-05-07T07:22:43;9.10;99.90
23271;DHT22;11804;51.118;17.058;2023-05-07T07:25:11;9.20;99.90
23271;DHT22;11804;51.118;17.058;2023-05-07T07:27:38;9.20;99.90
23271;DHT22;11804;51.118;17.058;2023-05-07T07:30:07;9.30;99.90
23271;DHT22;11804;51.118;17.058;2023-05-07T07:32:35;9.20;99.90
23271;DHT22;11804;51.118;17.058;2023-05-07T07:35:03;9.10;99.90
23271;DHT22;11804;51.118;17.058;2023-05-07T07:37:31;9.20;99.90
23271;DHT22;11804;51.118;17.058;2023-05-07T07:39:58;9.10;99.90
23271;DHT22;11804;51.118;17.058;2023-05-07T07:42:26;9.20;99.90
23271;DHT22;11804;51.118;17.058;2023-05-07T07:44:55;9.40;99.90
23271;DHT22;11804;51.118;17.058;2023-05-07T07:47:23;9.20;99.90
23271;DHT22;11804;51.118;17.058;2023-05-07T07:49:51;9.10;99.90
23271;DHT22;11804;51.118;17.058;2023-05-07T07:52:19;9.10;99.90
23271;DHT22;11804;51.118;17.058;2023-05-07T07:54:47;9.20;99.90
23271;DHT22;11804;51.118;17.058;2023-05-07T07:57:14;9.10;99.90
23271;DHT22;11804;51.118;17.058;2023-05-07T07:59:42;9.10;99.90
23271;DHT22;11804;51.118;17.058;2023-05-07T08:02:10;9.10;99.90
23271;DHT22;11804;51.118;17.058;2023-05-07T08:04:37;9.10;99.90
23271;DHT22;11804;51.118;17.058;2023-05-07T08:07:05;9.10;99.90
23271;DHT22;11804;51.118;17.058;2023-05-07T08:09:32;9.00;99.90
23271;DHT22;11804;51.118;17.058;2023-05-07T08:12:00;8.80;99.90
23271;DHT22;11804;51.118;17.058;2023-05-07T08:14:28;8.70;99.90
23271;DHT22;11804;51.118;17.058;2023-05-07T08:16:55;8.60;99.90
23271;DHT22;11804;51.118;17.058;2023-05-07T08:19:23;8.60;99.90
23271;DHT22;11804;51.118;17.058;2023-05-07T08:21:51;8.50;99.90
23271;DHT22;11804;51.118;17.058;2023-05-07T08:24:18;8.60;99.90
23271;DHT22;11804;51.118;17.058;2023-05-07T08:26:46;8.60;99.90
23271;DHT22;11804;51.118;17.058;2023-05-07T08:29:14;8.50;99.90
23271;DHT22;11804;51.118;17.058;2023-05-07T08:31:41;8.50;99.90
23271;DHT22;11804;51.118;17.058;2023-05-07T08:34:09;8.60;99.90
23271;DHT22;11804;51.118;17.058;2023-05-07T08:36:37;8.70;99.90
23271;DHT22;11804;51.118;17.058;2023-05-07T08:39:04;8.90;99.90
23271;DHT22;11804;51.118;17.058;2023-05-07T08:41:32;8.70;99.90
23271;DHT22;11804;51.118;17.058;2023-05-07T08:44:00;8.70;99.90
23271;DHT22;11804;51.118;17.058;2023-05-07T08:46:32;8.70;99.90
23271;DHT22;11804;51.118;17.058;2023-05-07T08:48:59;8.60;99.90
23271;DHT22;11804;51.118;17.058;2023-05-07T08:51:27;8.60;99.90
23271;DHT22;11804;51.118;17.058;2023-05-07T08:53:55;8.60;99.90
23271;DHT22;11804;51.118;17.058;2023-05-07T08:56:22;8.60;99.90
23271;DHT22;11804;51.118;17.058;2023-05-07T08:58:50;8.70;99.90
23271;DHT22;11804;51.118;17.058;2023-05-07T09:01:17;8.50;99.90
23271;DHT22;11804;51.118;17.058;2023-05-07T09:03:46;8.60;99.90
23271;DHT22;11804;51.118;17.058;2023-05-07T09:06:14;8.60;99.90
23271;DHT22;11804;51.118;17.058;2023-05-07T09:08:54;8.70;99.90
23271;DHT22;11804;51.118;17.058;2023-05-07T09:11:22;8.80;99.90
23271;DHT22;11804;51.118;17.058;2023-05-07T09:13:55;8.70;99.90
23271;DHT22;11804;51.118;17.058;2023-05-07T09:16:24;8.70;99.90
23271;DHT22;11804;51.118;17.058;2023-05-07T09:18:54;8.70;99.90
23271;DHT22;11804;51.118;17.058;2023-05-07T09:21:22;8.80;99.90
23271;DHT22;11804;51.118;17.058;2023-05-07T09:23:51;8.80;99.90
23271;DHT22;11804;51.118;17.058;2023-05-07T09:26:21;8.90;99.90
23271;DHT22;11804;51.118;17.058;2023-05-07T09:28:48;8.90;99.90
23271;DHT22;11804;51.118;17.058;2023-05-07T09:31:16;8.90;99.90
23271;DHT22;11804;51.118;17.058;2023-05-07T09:33:44;8.90;99.90
23271;DHT22;11804;51.118;17.058;2023-05-07T09:36:12;9.00;99.90
23271;DHT22;11804;51.118;17.058;2023-05-07T09:38:40;8.90;99.90
23271;DHT22;11804;51.118;17.058;2023-05-07T09:41:11;9.00;99.90
23271;DHT22;11804;51.118;17.058;2023-05-07T09:43:39;9.10;99.90
23271;DHT22;11804;51.118;17.058;2023-05-07T09:46:13;9.10;99.90
23271;DHT22;11804;51.118;17.058;2023-05-07T09:48:43;9.20;99.90
23271;DHT22;11804;51.118;17.058;2023-05-07T09:51:25;9.60;99.90
23271;DHT22;11804;51.118;17.058;2023-05-07T09:53:53;9.90;99.90
23271;DHT22;11804;51.118;17.058;2023-05-07T09:56:21;9.80;99.90
23271;DHT22;11804;51.118;17.058;2023-05-07T09:58:52;9.80;99.90
23271;DHT22;11804;51.118;17.058;2023-05-07T10:01:21;10.20;99.90
23271;DHT22;11804;51.118;17.058;2023-05-07T10:03:50;10.60;99.90
23271;DHT22;11804;51.118;17.058;2023-05-07T10:06:20;10.60;99.90
23271;DHT22;11804;51.118;17.058;2023-05-07T10:08:48;10.30;99.90
23271;DHT22;11804;51.118;17.058;2023-05-07T10:11:16;10.10;99.90
23271;DHT22;11804;51.118;17.058;2023-05-07T10:13:46;9.90;99.90
23271;DHT22;11804;51.118;17.058;2023-05-07T10:16:15;9.90;99.90
23271;DHT22;11804;51.118;17.058;2023-05-07T10:18:43;9.80;99.90
23271;DHT22;11804;51.118;17.058;2023-05-07T10:21:19;9.90;99.90
23271;DHT22;11804;51.118;17.058;2023-05-07T10:23:49;10.10;99.90
23271;DHT22;11804;51.118;17.058;2023-05-07T10:26:19;10.20;99.90
23271;DHT22;11804;51.118;17.058;2023-05-07T10:28:50;10.20;99.90
23271;DHT22;11804;51.118;17.058;2023-05-07T10:34:15;10.10;99.90
23271;DHT22;11804;51.118;17.058;2023-05-07T10:36:43;9.90;99.90
23271;DHT22;11804;51.118;17.058;2023-05-07T10:39:11;9.90;99.90
23271;DHT22;11804;51.118;17.058;2023-05-07T10:41:40;10.10;99.90
23271;DHT22;11804;51.118;17.058;2023-05-07T10:44:09;9.90;99.90
23271;DHT22;11804;51.118;17.058;2023-05-07T10:46:36;10.00;99.90
23271;DHT22;11804;51.118;17.058;2023-05-07T10:49:06;10.20;99.90
23271;DHT22;11804;51.118;17.058;2023-05-07T10:51:34;10.40;99.90
23271;DHT22;11804;51.118;17.058;2023-05-07T10:56:44;10.70;99.90
23271;DHT22;11804;51.118;17.058;2023-05-07T10:59:30;10.50;99.90
23271;DHT22;11804;51.118;17.058;2023-05-07T11:01:59;10.40;99.90
23271;DHT22;11804;51.118;17.058;2023-05-07T11:04:29;10.10;99.90
23271;DHT22;11804;51.118;17.058;2023-05-07T11:07:14;10.10;99.90
23271;DHT22;11804;51.118;17.058;2023-05-07T11:15:13;10.10;99.90
23271;DHT22;11804;51.118;17.058;2023-05-07T11:17:54;10.40;99.90
23271;DHT22;11804;51.118;17.058;2023-05-07T11:26:08;10.40;99.90
23271;DHT22;11804;51.118;17.058;2023-05-07T11:28:41;10.50;99.90
23271;DHT22;11804;51.118;17.058;2023-05-07T11:31:10;10.70;99.90
23271;DHT22;11804;51.118;17.058;2023-05-07T11:33:38;10.70;99.90
23271;DHT22;11804;51.118;17.058;2023-05-07T11:36:08;10.60;99.90
23271;DHT22;11804;51.118;17.058;2023-05-07T11:38:36;10.90;99.90
23271;DHT22;11804;51.118;17.058;2023-05-07T11:41:05;11.10;99.90
23271;DHT22;11804;51.118;17.058;2023-05-07T11:43:33;10.90;99.90
23271;DHT22;11804;51.118;17.058;2023-05-07T11:46:09;10.80;99.90
23271;DHT22;11804;51.118;17.058;2023-05-07T11:48:38;10.90;99.90
23271;DHT22;11804;51.118;17.058;2023-05-07T11:51:07;10.60;99.90
23271;DHT22;11804;51.118;17.058;2023-05-07T11:53:42;10.30;99.90
23271;DHT22;11804;51.118;17.058;2023-05-07T11:56:12;10.40;99.90
23271;DHT22;11804;51.118;17.058;2023-05-07T11:58:41;10.50;99.90
23271;DHT22;11804;51.118;17.058;2023-05-07T12:01:11;10.70;99.90
23271;DHT22;11804;51.118;17.058;2023-05-07T12:03:40;10.80;99.90
23271;DHT22;11804;51.118;17.058;2023-05-07T12:06:14;10.80;99.90
23271;DHT22;11804;51.118;17.058;2023-05-07T12:08:44;10.80;99.90
23271;DHT22;11804;51.118;17.058;2023-05-07T12:11:23;10.60;99.90
23271;DHT22;11804;51.118;17.058;2023-05-07T12:13:46;10.70;99.90
23271;DHT22;11804;51.118;17.058;2023-05-07T12:16:14;10.50;99.90
23271;DHT22;11804;51.118;17.058;2023-05-07T12:18:42;10.40;99.90
23271;DHT22;11804;51.118;17.058;2023-05-07T12:21:10;10.60;99.90
23271;DHT22;11804;51.118;17.058;2023-05-07T12:23:39;10.60;99.90
23271;DHT22;11804;51.118;17.058;2023-05-07T12:26:07;10.40;99.90
23271;DHT22;11804;51.118;17.058;2023-05-07T12:28:37;10.40;99.90
23271;DHT22;11804;51.118;17.058;2023-05-07T12:31:06;10.30;99.90
23271;DHT22;11804;51.118;17.058;2023-05-07T12:33:35;10.30;99.90
23271;DHT22;11804;51.118;17.058;2023-05-07T12:36:07;10.30;99.90
23271;DHT22;11804;51.118;17.058;2023-05-07T12:38:37;10.40;99.90
23271;DHT22;11804;51.118;17.058;2023-05-07T12:41:05;10.30;99.90
23271;DHT22;11804;51.118;17.058;2023-05-07T12:43:34;10.30;99.90
23271;DHT22;11804;51.118;17.058;2023-05-07T12:46:04;10.40;99.90
23271;DHT22;11804;51.118;17.058;2023-05-07T12:48:32;10.30;99.90
23271;DHT22;11804;51.118;17.058;2023-05-07T12:51:02;10.30;99.90
23271;DHT22;11804;51.118;17.058;2023-05-07T12:53:30;10.30;99.90
23271;DHT22;11804;51.118;17.058;2023-05-07T12:55:59;10.30;99.90
23271;DHT22;11804;51.118;17.058;2023-05-07T12:58:30;10.50;99.90
23271;DHT22;11804;51.118;17.058;2023-05-07T13:01:00;10.60;99.90
23271;DHT22;11804;51.118;17.058;2023-05-07T13:03:31;10.70;99.90
23271;DHT22;11804;51.118;17.058;2023-05-07T13:06:01;10.70;99.90
23271;DHT22;11804;51.118;17.058;2023-05-07T13:08:32;10.40;99.90
23271;DHT22;11804;51.118;17.058;2023-05-07T13:11:02;10.30;99.90
23271;DHT22;11804;51.118;17.058;2023-05-07T13:13:31;10.20;99.90
23271;DHT22;11804;51.118;17.058;2023-05-07T13:16:00;10.20;99.90
23271;DHT22;11804;51.118;17.058;2023-05-07T13:18:30;10.40;99.90
23271;DHT22;11804;51.118;17.058;2023-05-07T13:20:59;10.30;99.90
23271;DHT22;11804;51.118;17.058;2023-05-07T13:23:28;10.10;99.90
23271;DHT22;11804;51.118;17.058;2023-05-07T13:25:56;10.10;99.90
23271;DHT22;11804;51.118;17.058;2023-05-07T13:28:24;10.00;99.90
23271;DHT22;11804;51.118;17.058;2023-05-07T13:30:53;10.00;99.90
23271;DHT22;11804;51.118;17.058;2023-05-07T13:33:21;10.00;99.90
23271;DHT22;11804;51.118;17.058;2023-05-07T13:35:48;10.10;99.90
23271;DHT22;11804;51.118;17.058;2023-05-07T13:38:17;10.20;99.90
23271;DHT22;11804;51.118;17.058;2023-05-07T13:40:45;10.10;99.90
23271;DHT22;11804;51.118;17.058;2023-05-07T13:43:12;10.30;99.90
23271;DHT22;11804;51.118;17.058;2023-05-07T13:45:41;10.30;99.90
23271;DHT22;11804;51.118;17.058;2023-05-07T13:48:08;10.30;99.90
23271;DHT22;11804;51.118;17.058;2023-05-07T13:50:36;10.40;99.90
23271;DHT22;11804;51.118;17.058;2023-05-07T13:53:03;10.20;99.90
23271;DHT22;11804;51.118;17.058;2023-05-07T13:55:31;10.00;99.90
23271;DHT22;11804;51.118;17.058;2023-05-07T13:58:00;10.00;99.90
23271;DHT22;11804;51.118;17.058;2023-05-07T14:00:29;10.10;99.90
23271;DHT22;11804;51.118;17.058;2023-05-07T14:02:58;10.10;99.90
23271;DHT22;11804;51.118;17.058;2023-05-07T14:05:25;10.10;99.90
23271;DHT22;11804;51.118;17.058;2023-05-07T14:07:57;10.10;99.90
23271;DHT22;11804;51.118;17.058;2023-05-07T14:10:25;10.20;99.90
23271;DHT22;11804;51.118;17.058;2023-05-07T14:12:53;10.10;99.90
23271;DHT22;11804;51.118;17.058;2023-05-07T14:15:21;10.00;99.90
23271;DHT22;11804;51.118;17.058;2023-05-07T14:17:49;10.00;99.90
23271;DHT22;11804;51.118;17.058;2023-05-07T14:20:16;10.10;99.90
23271;DHT22;11804;51.118;17.058;2023-05-07T14:22:44;10.10;99.90
23271;DHT22;11804;51.118;17.058;2023-05-07T14:25:11;9.90;99.90
23271;DHT22;11804;51.118;17.058;2023-05-07T14:27:39;10.00;99.90
23271;DHT22;11804;51.118;17.058;2023-05-07T14:30:08;9.90;99.90
23271;DHT22;11804;51.118;17.058;2023-05-07T14:32:36;10.00;99.90
23271;DHT22;11804;51.118;17.058;2023-05-07T14:35:06;10.00;99.90
23271;DHT22;11804;51.118;17.058;2023-05-07T14:37:33;10.00;99.90
23271;DHT22;11804;51.118;17.058;2023-05-07T14:40:01;10.20;99.90
23271;DHT22;11804;51.118;17.058;2023-05-07T14:42:28;10.30;99.90
23271;DHT22;11804;51.118;17.058;2023-05-07T14:44:57;10.20;99.90
23271;DHT22;11804;51.118;17.058;2023-05-07T14:47:24;10.40;99.90
23271;DHT22;11804;51.118;17.058;2023-05-07T14:49:52;10.50;99.90
23271;DHT22;11804;51.118;17.058;2023-05-07T14:52:19;10.30;99.90
23271;DHT22;11804;51.118;17.058;2023-05-07T14:54:47;10.20;99.90
23271;DHT22;11804;51.118;17.058;2023-05-07T14:57:15;10.30;99.90
23271;DHT22;11804;51.118;17.058;2023-05-07T14:59:45;10.40;99.90
23271;DHT22;11804;51.118;17.058;2023-05-07T15:02:13;10.30;99.90
23271;DHT22;11804;51.118;17.058;2023-05-07T15:04:41;10.30;99.90
23271;DHT22;11804;51.118;17.058;2023-05-07T15:07:11;10.30;99.90
23271;DHT22;11804;51.118;17.058;2023-05-07T15:09:42;10.20;99.90
23271;DHT22;11804;51.118;17.058;2023-05-07T15:12:09;10.20;99.90
23271;DHT22;11804;51.118;17.058;2023-05-07T15:14:38;10.20;99.90
23271;DHT22;11804;51.118;17.058;2023-05-07T15:17:06;10.30;99.90
23271;DHT22;11804;51.118;17.058;2023-05-07T15:19:33;10.30;99.90
23271;DHT22;11804;51.118;17.058;2023-05-07T15:22:01;10.50;99.90
23271;DHT22;11804;51.118;17.058;2023-05-07T15:24:30;10.40;99.90
23271;DHT22;11804;51.118;17.058;2023-05-07T15:26:59;10.40;99.90
23271;DHT22;11804;51.118;17.058;2023-05-07T15:29:28;10.40;99.90
23271;DHT22;11804;51.118;17.058;2023-05-07T15:31:56;10.40;99.90
23271;DHT22;11804;51.118;17.058;2023-05-07T15:34:24;10.40;99.90
23271;DHT22;11804;51.118;17.058;2023-05-07T15:36:52;10.30;99.90
23271;DHT22;11804;51.118;17.058;2023-05-07T15:39:20;10.30;99.90
23271;DHT22;11804;51.118;17.058;2023-05-07T15:41:47;10.20;99.90
23271;DHT22;11804;51.118;17.058;2023-05-07T15:44:15;10.20;99.90
23271;DHT22;11804;51.118;17.058;2023-05-07T15:46:43;10.20;99.90
23271;DHT22;11804;51.118;17.058;2023-05-07T15:49:10;10.10;99.90